createdAt,value
2019-06-20T00:01:29.626Z,5.08
2019-06-20T00:04:00.258Z,5.47
2019-06-20T00:06:35.265Z,5.73
2019-06-20T00:09:06.225Z,5.33
2019-06-20T00:11:36.604Z,5.83
2019-06-20T00:14:08.698Z,4.83
2019-06-20T00:19:13.750Z,5.83
2019-06-20T00:21:44.534Z,5.73
2019-06-20T00:24:20.770Z,6.10
2019-06-20T00:26:50.616Z,5.33
2019-06-20T00:29:23.560Z,5.07
2019-06-20T00:31:54.259Z,5.90
2019-06-20T00:34:26.893Z,6.62
2019-06-20T00:36:57.038Z,6.00
2019-06-20T00:39:29.946Z,5.67
2019-06-20T00:41:59.012Z,5.15
2019-06-20T00:44:28.086Z,5.35
2019-06-20T00:47:01.664Z,5.20
2019-06-20T00:49:32.623Z,5.10
2019-06-20T00:52:03.381Z,5.67
2019-06-20T00:54:34.043Z,5.62
2019-06-20T00:57:07.523Z,5.28
2019-06-20T00:59:36.531Z,5.50
2019-06-20T01:02:05.852Z,4.85
2019-06-20T01:04:35.573Z,6.33
2019-06-20T01:07:08.425Z,6.63
2019-06-20T01:09:37.457Z,6.70
2019-06-20T01:12:06.811Z,8.50
2019-06-20T01:14:39.221Z,7.90
2019-06-20T01:17:10.095Z,6.85
2019-06-20T01:19:39.124Z,9.23
2019-06-20T01:22:11.441Z,8.90
2019-06-20T01:24:42.397Z,9.63
2019-06-20T01:27:16.791Z,9.40
2019-06-20T01:29:47.084Z,9.80
2019-06-20T01:32:16.193Z,9.70
2019-06-20T01:34:45.248Z,10.88
2019-06-20T01:37:19.722Z,10.18
2019-06-20T01:39:49.150Z,9.33
2019-06-20T01:42:19.002Z,9.95
2019-06-20T01:44:48.402Z,10.25
2019-06-20T01:47:17.453Z,10.07
2019-06-20T01:49:46.489Z,10.83
2019-06-20T01:52:16.400Z,10.53
2019-06-20T01:54:47.242Z,10.68
2019-06-20T01:57:17.696Z,10.18
2019-06-20T01:59:47.864Z,11.25
2019-06-20T02:02:16.970Z,10.20
2019-06-20T02:04:49.531Z,10.35
2019-06-20T02:07:28.009Z,11.30
2019-06-20T02:09:55.308Z,11.48
2019-06-20T02:12:24.851Z,10.60
2019-06-20T02:14:54.826Z,11.00
2019-06-20T02:17:23.983Z,10.98
2019-06-20T02:19:54.004Z,11.00
2019-06-20T02:22:23.053Z,11.57
2019-06-20T02:24:52.218Z,10.88
2019-06-20T02:27:21.958Z,11.35
2019-06-20T02:29:50.998Z,10.38
2019-06-20T02:32:20.050Z,10.48
2019-06-20T02:34:52.347Z,11.17
2019-06-20T02:37:23.329Z,10.70
2019-06-20T02:39:56.148Z,10.98
2019-06-20T02:42:27.131Z,11.70
2019-06-20T02:44:57.196Z,10.90
2019-06-20T02:47:29.855Z,10.35
2019-06-20T02:49:59.823Z,10.57
2019-06-20T02:52:32.166Z,9.87
2019-06-20T02:55:01.264Z,9.23
2019-06-20T02:57:34.070Z,8.60
2019-06-20T03:00:08.166Z,8.00
2019-06-20T03:02:38.787Z,8.15
2019-06-20T03:05:12.228Z,7.65
2019-06-20T03:07:42.518Z,7.55
2019-06-20T03:10:11.915Z,7.10
2019-06-20T03:12:42.887Z,7.90
2019-06-20T03:15:12.184Z,7.72
2019-06-20T03:17:44.313Z,7.92
2019-06-20T03:20:13.953Z,7.50
2019-06-20T03:22:45.386Z,7.97
2019-06-20T03:25:18.741Z,7.42
2019-06-20T03:27:48.851Z,7.92
2019-06-20T03:30:19.082Z,7.85
2019-06-20T03:32:51.953Z,7.42
2019-06-20T03:35:20.995Z,8.30
2019-06-20T03:37:53.288Z,7.87
2019-06-20T03:40:25.771Z,8.25
2019-06-20T03:42:58.078Z,8.33
2019-06-20T03:45:27.113Z,8.20
2019-06-20T03:47:59.399Z,7.87
2019-06-20T03:50:29.879Z,8.53
2019-06-20T03:53:02.225Z,7.60
2019-06-20T03:55:31.901Z,8.75
2019-06-20T03:58:01.443Z,8.65
2019-06-20T04:00:33.109Z,9.58
2019-06-20T04:03:04.626Z,9.15
2019-06-20T04:05:37.865Z,9.85
2019-06-20T04:08:07.899Z,9.80
2019-06-20T04:10:38.279Z,10.45
2019-06-20T04:13:10.719Z,10.65
2019-06-20T04:15:40.994Z,11.15
2019-06-20T04:18:10.849Z,10.65
2019-06-20T04:20:45.478Z,10.25
2019-06-20T04:23:15.537Z,11.38
2019-06-20T04:25:47.937Z,11.25
2019-06-20T04:28:19.292Z,10.68
2019-06-20T04:30:52.068Z,11.43
2019-06-20T04:33:26.767Z,10.88
2019-06-20T04:35:57.505Z,12.40
2019-06-20T04:38:32.901Z,11.28
2019-06-20T04:41:05.877Z,11.88
2019-06-20T04:43:40.523Z,12.23
2019-06-20T04:46:14.673Z,12.30
2019-06-20T04:48:43.764Z,12.58
2019-06-20T04:51:14.399Z,11.63
2019-06-20T04:53:45.218Z,13.08
2019-06-20T04:56:17.975Z,14.87
2019-06-20T04:58:47.027Z,14.83
2019-06-20T05:01:19.488Z,14.15
2019-06-20T05:03:52.022Z,14.83
2019-06-20T05:06:24.513Z,16.25
2019-06-20T05:08:53.571Z,16.45
2019-06-20T05:11:22.585Z,17.20
2019-06-20T05:13:57.864Z,19.02
2019-06-20T05:16:33.205Z,17.77
2019-06-20T05:19:06.160Z,19.10
2019-06-20T05:21:36.479Z,19.23
2019-06-20T05:24:09.103Z,18.90
2019-06-20T05:26:39.883Z,19.23
2019-06-20T05:29:10.825Z,20.50
2019-06-20T05:31:40.649Z,19.52
2019-06-20T05:34:10.299Z,20.17
2019-06-20T05:36:41.111Z,19.92
2019-06-20T05:39:11.088Z,20.88
2019-06-20T05:41:43.390Z,21.02
2019-06-20T05:44:16.312Z,21.33
2019-06-20T05:46:45.312Z,22.67
2019-06-20T05:49:14.352Z,23.80
2019-06-20T05:51:48.272Z,22.58
2019-06-20T05:54:17.328Z,22.30
2019-06-20T05:56:48.054Z,23.18
2019-06-20T05:59:17.775Z,22.90
2019-06-20T06:01:50.662Z,22.48
2019-06-20T06:04:21.190Z,21.97
2019-06-20T06:06:54.083Z,19.85
2019-06-20T06:09:23.400Z,19.20
2019-06-20T06:11:54.277Z,18.75
2019-06-20T06:14:24.711Z,20.45
2019-06-20T06:16:57.776Z,18.75
2019-06-20T06:19:28.078Z,17.50
2019-06-20T06:21:57.141Z,16.17
2019-06-20T06:24:27.359Z,17.82
2019-06-20T06:26:59.828Z,18.85
2019-06-20T06:29:30.719Z,18.75
2019-06-20T06:32:03.268Z,18.95
2019-06-20T06:34:32.349Z,19.85
2019-06-20T06:37:01.363Z,20.37
2019-06-20T06:39:31.464Z,18.40
2019-06-20T06:42:02.251Z,19.27
2019-06-20T06:44:32.828Z,17.65
2019-06-20T06:47:03.249Z,18.40
2019-06-20T06:49:33.114Z,17.77
2019-06-20T06:52:02.138Z,17.70
2019-06-20T06:54:32.018Z,17.70
2019-06-20T06:57:04.973Z,17.98
2019-06-20T06:59:37.734Z,19.00
2019-06-20T07:02:10.595Z,19.90
2019-06-20T07:04:41.227Z,19.40
2019-06-20T07:07:13.398Z,19.82
2019-06-20T07:09:42.795Z,20.17
2019-06-20T07:12:13.404Z,19.62
2019-06-20T07:14:46.241Z,21.27
2019-06-20T07:17:16.092Z,20.17
2019-06-20T07:19:47.140Z,21.87
2019-06-20T07:22:16.159Z,21.02
2019-06-20T07:24:49.546Z,21.85
2019-06-20T07:27:22.428Z,23.50
2019-06-20T07:29:52.034Z,21.55
2019-06-20T07:32:24.626Z,23.07
2019-06-20T07:34:54.270Z,22.65
2019-06-20T07:37:27.164Z,20.10
2019-06-20T07:39:59.857Z,21.00
2019-06-20T07:42:32.893Z,20.92
2019-06-20T07:45:05.021Z,21.42
2019-06-20T07:47:35.782Z,21.00
2019-06-20T07:50:08.877Z,21.35
2019-06-20T07:52:37.969Z,19.07
2019-06-20T07:55:07.968Z,19.48
2019-06-20T07:57:40.043Z,19.45
2019-06-20T08:00:12.649Z,20.35
2019-06-20T08:02:42.001Z,21.75
2019-06-20T08:05:12.125Z,21.25
2019-06-20T08:07:43.770Z,21.40
2019-06-20T08:10:16.211Z,21.27
2019-06-20T08:12:46.894Z,21.42
2019-06-20T08:15:16.936Z,21.30
2019-06-20T08:17:46.055Z,22.62
2019-06-20T08:20:16.366Z,20.90
2019-06-20T08:22:46.099Z,19.73
2019-06-20T08:25:16.539Z,20.80
2019-06-20T08:27:50.283Z,22.20
2019-06-20T08:30:23.103Z,20.50
2019-06-20T08:32:53.831Z,22.25
2019-06-20T08:35:26.860Z,22.00
2019-06-20T08:37:59.318Z,22.82
2019-06-20T08:40:35.425Z,21.30
2019-06-20T08:43:06.687Z,21.02
2019-06-20T08:45:39.242Z,20.65
2019-06-20T08:48:12.169Z,20.75
2019-06-20T08:50:44.399Z,21.87
2019-06-20T08:53:16.672Z,20.90
2019-06-20T08:55:46.004Z,21.25
2019-06-20T08:58:15.022Z,23.22
2019-06-20T09:00:48.033Z,21.23
2019-06-20T09:03:18.583Z,20.65
2019-06-20T09:05:51.355Z,20.37
2019-06-20T09:08:22.546Z,17.98
2019-06-20T09:10:55.692Z,18.07
2019-06-20T09:13:28.536Z,17.27
2019-06-20T09:15:58.710Z,17.70
2019-06-20T09:18:28.555Z,12.93
2019-06-20T09:21:03.374Z,13.25
2019-06-20T09:23:39.382Z,11.40
2019-06-20T09:26:09.351Z,11.18
2019-06-20T09:28:39.629Z,13.85
2019-06-20T09:31:08.725Z,12.93
2019-06-20T09:33:40.849Z,13.90
2019-06-20T09:36:10.701Z,14.83
2019-06-20T09:38:41.454Z,14.60
2019-06-20T09:41:14.242Z,16.85
2019-06-20T09:43:44.758Z,17.60
2019-06-20T09:46:17.725Z,18.05
2019-06-20T09:48:49.314Z,18.45
2019-06-20T09:51:21.880Z,19.23
2019-06-20T09:53:51.863Z,17.65
2019-06-20T09:56:21.761Z,16.75
2019-06-20T09:58:58.260Z,16.97
2019-06-20T10:01:27.395Z,15.58
2019-06-20T10:04:01.874Z,16.10
2019-06-20T10:06:31.813Z,14.47
2019-06-20T10:09:00.891Z,16.52
2019-06-20T10:11:32.919Z,14.63
2019-06-20T10:14:07.894Z,16.25
2019-06-20T10:16:45.848Z,17.02
2019-06-20T10:19:13.424Z,17.62
2019-06-20T10:21:42.839Z,17.73
2019-06-20T10:24:18.258Z,17.73
2019-06-20T10:26:49.599Z,17.23
2019-06-20T10:29:25.032Z,17.95
2019-06-20T10:31:54.426Z,16.25
2019-06-20T10:34:25.406Z,14.55
2019-06-20T10:36:57.619Z,14.83
2019-06-20T10:39:32.849Z,17.12
2019-06-20T10:42:05.428Z,17.55
2019-06-20T10:44:40.199Z,17.57
2019-06-20T10:47:10.706Z,17.37
2019-06-20T10:49:46.224Z,19.23
2019-06-20T10:52:21.425Z,19.40
2019-06-20T10:54:56.462Z,18.30
2019-06-20T10:57:27.233Z,16.90
2019-06-20T10:59:56.287Z,16.27
2019-06-20T11:02:25.367Z,14.07
2019-06-20T11:05:00.535Z,13.45
2019-06-20T11:07:31.252Z,15.13
2019-06-20T11:10:06.289Z,14.80
2019-06-20T11:12:45.548Z,16.67
2019-06-20T11:15:10.523Z,15.65
2019-06-20T11:17:40.400Z,17.45
2019-06-20T11:20:14.310Z,17.30
2019-06-20T11:22:43.398Z,16.55
2019-06-20T11:25:13.640Z,16.23
2019-06-20T11:27:44.685Z,16.87
2019-06-20T11:30:16.703Z,16.12
2019-06-20T11:32:46.293Z,14.63
2019-06-20T11:35:16.845Z,14.70
2019-06-20T11:37:50.403Z,14.68
2019-06-20T11:40:19.915Z,11.33
2019-06-20T11:42:49.595Z,10.38
2019-06-20T11:45:24.832Z,8.60
2019-06-20T11:47:59.496Z,9.13
2019-06-20T11:50:36.156Z,8.68
2019-06-20T11:53:07.807Z,8.85
2019-06-20T11:55:43.572Z,9.50
2019-06-20T11:58:13.690Z,9.53
2019-06-20T12:00:58.656Z,10.03
2019-06-20T12:03:22.579Z,8.78
2019-06-20T12:05:55.583Z,8.05
2019-06-20T12:08:25.644Z,7.53
2019-06-20T12:10:56.554Z,7.70
2019-06-20T12:13:29.467Z,7.58
2019-06-20T12:15:59.200Z,6.83
2019-06-20T12:18:30.546Z,7.28
2019-06-20T12:21:05.653Z,7.40
2019-06-20T12:23:39.532Z,6.85
2019-06-20T12:26:10.430Z,6.58
2019-06-20T12:28:40.730Z,6.47
2019-06-20T12:31:19.512Z,7.78
2019-06-20T12:33:47.490Z,6.75
2019-06-20T12:36:17.753Z,6.60
2019-06-20T12:38:48.525Z,6.65
2019-06-20T12:41:18.926Z,6.20
2019-06-20T12:43:51.702Z,4.78
2019-06-20T12:46:26.177Z,5.22
2019-06-20T12:48:58.274Z,4.95
2019-06-20T12:51:31.171Z,4.62
2019-06-20T12:54:02.027Z,5.15
2019-06-20T12:56:31.575Z,5.00
2019-06-20T12:59:02.647Z,5.15
2019-06-20T13:01:35.849Z,5.10
2019-06-20T13:04:06.126Z,5.60
2019-06-20T13:06:37.699Z,4.95
2019-06-20T13:09:09.228Z,4.67
2019-06-20T13:11:40.659Z,4.55
2019-06-20T13:14:13.614Z,5.95
2019-06-20T13:16:42.817Z,6.40
2019-06-20T13:19:15.116Z,6.47
2019-06-20T13:21:48.622Z,6.33
2019-06-20T13:24:21.368Z,5.92
2019-06-20T13:26:51.191Z,6.62
2019-06-20T13:29:20.406Z,6.72
2019-06-20T13:32:01.910Z,5.67
2019-06-20T13:34:27.232Z,4.78
2019-06-20T13:36:56.251Z,4.85
2019-06-20T13:42:01.402Z,6.60
2019-06-20T13:44:30.806Z,6.67
2019-06-20T13:46:59.886Z,5.67
2019-06-20T13:49:30.199Z,5.87
2019-06-20T13:51:59.506Z,4.30
2019-06-20T13:54:29.585Z,5.22
2019-06-20T13:56:58.927Z,4.97
2019-06-20T13:59:27.958Z,4.95
2019-06-20T14:02:06.580Z,4.40
2019-06-20T14:04:34.574Z,4.80
2019-06-20T14:07:03.792Z,4.65
2019-06-20T14:09:32.852Z,4.72
2019-06-20T14:12:03.460Z,4.85
2019-06-20T14:14:33.469Z,4.12
2019-06-20T14:17:02.676Z,5.42
2019-06-20T14:19:34.923Z,4.12
2019-06-20T14:22:04.559Z,3.33
2019-06-20T14:24:36.619Z,3.25
2019-06-20T14:27:06.031Z,3.40
2019-06-20T14:29:38.107Z,3.47
2019-06-20T14:32:21.285Z,3.52
2019-06-20T14:34:43.656Z,3.83
2019-06-20T14:37:14.220Z,3.20
2019-06-20T14:39:46.418Z,3.10
2019-06-20T14:42:19.206Z,3.10
2019-06-20T14:44:49.781Z,3.87
2019-06-20T14:47:20.160Z,2.90
2019-06-20T14:49:52.300Z,3.67
2019-06-20T14:52:25.138Z,3.98
2019-06-20T14:54:58.040Z,3.75
2019-06-20T14:57:27.126Z,3.98
2019-06-20T14:59:56.119Z,3.80
2019-06-20T15:02:37.855Z,4.20
2019-06-20T15:05:02.387Z,4.22
2019-06-20T15:07:34.467Z,4.12
2019-06-20T15:10:06.492Z,4.10
2019-06-20T15:12:36.515Z,3.87
2019-06-20T15:15:11.715Z,3.80
2019-06-20T15:17:40.795Z,3.52
2019-06-20T15:20:13.931Z,4.10
2019-06-20T15:22:43.761Z,3.90
2019-06-20T15:25:18.386Z,4.67
2019-06-20T15:27:49.605Z,4.80
2019-06-20T15:30:21.858Z,5.15
2019-06-20T15:33:04.055Z,4.55
2019-06-20T15:35:22.951Z,5.65
2019-06-20T15:37:53.780Z,4.75
2019-06-20T15:40:27.076Z,4.15
2019-06-20T15:42:56.976Z,4.30
2019-06-20T15:45:27.785Z,4.20
2019-06-20T15:47:57.396Z,4.33
2019-06-20T15:50:27.156Z,4.33
2019-06-20T15:52:59.548Z,4.42
2019-06-20T15:55:30.501Z,4.55
2019-06-20T15:58:00.377Z,4.72
2019-06-20T16:00:29.389Z,4.67
2019-06-20T16:03:09.345Z,5.00
2019-06-20T16:05:30.823Z,5.83
2019-06-20T16:08:02.040Z,4.70
2019-06-20T16:10:32.103Z,5.30
2019-06-20T16:13:02.093Z,5.25
2019-06-20T16:15:32.366Z,5.67
2019-06-20T16:18:01.768Z,4.90
2019-06-20T16:20:34.148Z,5.00
2019-06-20T16:23:03.223Z,5.28
2019-06-20T16:25:35.980Z,4.87
2019-06-20T16:28:06.467Z,5.00
2019-06-20T16:30:39.174Z,4.45
2019-06-20T16:33:23.847Z,5.40
2019-06-20T16:35:40.106Z,5.12
2019-06-20T16:38:09.247Z,5.72
2019-06-20T16:40:42.916Z,5.33
2019-06-20T16:43:12.055Z,5.17
2019-06-20T16:45:44.919Z,5.00
2019-06-20T16:48:15.090Z,4.78
2019-06-20T16:50:47.746Z,4.97
2019-06-20T16:53:20.123Z,4.65
2019-06-20T16:55:53.024Z,4.87
2019-06-20T16:58:22.064Z,4.95
2019-06-20T17:00:51.257Z,5.00
2019-06-20T17:03:20.889Z,5.00
2019-06-20T17:05:53.419Z,5.35
2019-06-20T17:08:22.484Z,5.95
2019-06-20T17:10:52.729Z,5.50
2019-06-20T17:13:23.363Z,5.87
2019-06-20T17:15:55.690Z,5.60
2019-06-20T17:18:28.085Z,5.80
2019-06-20T17:20:57.475Z,5.28
2019-06-20T17:23:28.047Z,5.53
2019-06-20T17:25:57.391Z,6.17
2019-06-20T17:28:26.466Z,5.92
2019-06-20T17:30:56.343Z,5.70
2019-06-20T17:33:27.161Z,6.20
2019-06-20T17:36:00.034Z,5.78
2019-06-20T17:38:29.684Z,5.80
2019-06-20T17:41:00.469Z,7.33
2019-06-20T17:43:29.951Z,6.35
2019-06-20T17:46:00.859Z,6.20
2019-06-20T17:48:29.928Z,6.50
2019-06-20T17:51:00.721Z,5.37
2019-06-20T17:53:30.467Z,5.55
2019-06-20T17:56:03.511Z,5.65
2019-06-20T17:58:33.306Z,6.33
2019-06-20T18:01:02.533Z,5.42
2019-06-20T18:03:35.440Z,5.90
2019-06-20T18:06:05.247Z,5.00
2019-06-20T18:08:34.726Z,5.25
2019-06-20T18:11:07.600Z,5.33
2019-06-20T18:13:38.274Z,5.50
2019-06-20T18:16:07.325Z,5.60
2019-06-20T18:18:37.033Z,5.55
2019-06-20T18:21:06.054Z,4.97
2019-06-20T18:23:40.969Z,4.80
2019-06-20T18:26:13.325Z,4.60
2019-06-20T18:28:42.838Z,4.28
2019-06-20T18:31:17.956Z,3.95
2019-06-20T18:33:47.413Z,3.92
2019-06-20T18:36:16.442Z,4.40
2019-06-20T18:38:45.702Z,4.03
2019-06-20T18:41:14.822Z,4.10
2019-06-20T18:43:45.155Z,4.10
2019-06-20T18:46:14.958Z,4.08
2019-06-20T18:48:45.816Z,3.77
2019-06-20T18:51:14.816Z,4.03
2019-06-20T18:53:50.516Z,4.65
2019-06-20T18:56:21.796Z,4.47
2019-06-20T18:58:51.638Z,4.22
2019-06-20T19:01:22.394Z,4.65
2019-06-20T19:03:54.381Z,4.80
2019-06-20T19:06:35.857Z,5.78
2019-06-20T19:08:59.443Z,5.75
2019-06-20T19:11:29.126Z,6.12
2019-06-20T19:13:59.165Z,5.30
2019-06-20T19:16:32.085Z,5.35
2019-06-20T19:19:01.133Z,5.65
2019-06-20T19:21:34.127Z,5.03
2019-06-20T19:24:03.359Z,6.45
2019-06-20T19:26:33.969Z,6.08
2019-06-20T19:29:04.179Z,5.42
2019-06-20T19:31:34.186Z,5.80
2019-06-20T19:34:07.163Z,5.53
2019-06-20T19:36:36.742Z,5.42
2019-06-20T19:39:10.114Z,5.55
2019-06-20T19:41:39.733Z,5.50
2019-06-20T19:44:12.151Z,5.10
2019-06-20T19:46:47.128Z,4.62
2019-06-20T19:49:17.095Z,5.15
2019-06-20T19:51:47.023Z,4.90
2019-06-20T19:54:17.420Z,4.45
2019-06-20T19:56:49.479Z,4.75
2019-06-20T19:59:18.518Z,4.67
2019-06-20T20:01:51.415Z,4.78
2019-06-20T20:04:20.529Z,5.03
2019-06-20T20:06:50.966Z,4.95
2019-06-20T20:09:20.008Z,5.15
2019-06-20T20:11:49.050Z,5.60
2019-06-20T20:14:21.028Z,5.05
2019-06-20T20:16:50.105Z,5.10
2019-06-20T20:19:23.762Z,5.60
2019-06-20T20:21:53.270Z,6.35
2019-06-20T20:24:22.611Z,5.87
2019-06-20T20:26:55.203Z,5.70
2019-06-20T20:29:28.010Z,5.58
2019-06-20T20:32:00.601Z,5.85
2019-06-20T20:34:29.677Z,5.50
2019-06-20T20:36:59.856Z,5.53
2019-06-20T20:39:32.056Z,5.92
2019-06-20T20:42:03.210Z,5.97
2019-06-20T20:44:32.279Z,6.30
2019-06-20T20:47:01.542Z,6.62
2019-06-20T20:49:30.646Z,5.92
2019-06-20T20:52:02.543Z,5.62
2019-06-20T20:54:31.662Z,6.20
2019-06-20T20:57:00.692Z,6.37
2019-06-20T20:59:32.762Z,6.03
2019-06-20T21:02:05.034Z,5.60
2019-06-20T21:04:37.935Z,5.83
2019-06-20T21:07:10.250Z,6.08
2019-06-20T21:09:51.226Z,6.30
2019-06-20T21:12:20.217Z,6.28
2019-06-20T21:14:49.932Z,5.72
2019-06-20T21:17:21.993Z,5.72
2019-06-20T21:19:51.562Z,6.75
2019-06-20T21:22:21.736Z,5.90
2019-06-20T21:24:52.354Z,5.95
2019-06-20T21:27:21.375Z,6.67
2019-06-20T21:29:52.230Z,6.37
2019-06-20T21:32:22.577Z,6.87
2019-06-20T21:34:52.269Z,6.65
2019-06-20T21:37:27.245Z,6.78
2019-06-20T21:39:57.134Z,6.33
2019-06-20T21:42:30.012Z,6.62
2019-06-20T21:44:59.088Z,6.58
2019-06-20T21:47:28.096Z,6.83
2019-06-20T21:49:58.855Z,7.05
2019-06-20T21:52:27.913Z,6.78
2019-06-20T21:54:58.134Z,7.22
2019-06-20T21:57:31.411Z,6.78
2019-06-20T22:00:02.371Z,6.65
2019-06-20T22:02:34.424Z,7.00
2019-06-20T22:05:07.050Z,7.17
2019-06-20T22:07:40.036Z,7.53
2019-06-20T22:10:10.429Z,7.65
2019-06-20T22:12:39.552Z,6.80
2019-06-20T22:15:11.662Z,6.83
2019-06-20T22:17:41.638Z,6.78
2019-06-20T22:20:13.450Z,6.40
2019-06-20T22:22:44.163Z,6.10
2019-06-20T22:25:16.813Z,6.17
2019-06-20T22:27:48.131Z,6.33
2019-06-20T22:30:19.254Z,5.72
2019-06-20T22:32:48.298Z,6.28
2019-06-20T22:35:18.566Z,6.10
2019-06-20T22:37:49.107Z,6.15
2019-06-20T22:40:19.539Z,6.62
2019-06-20T22:42:52.278Z,6.62
2019-06-20T22:45:22.723Z,6.90
2019-06-20T22:47:54.887Z,7.30
2019-06-20T22:50:25.606Z,7.40
2019-06-20T22:52:55.259Z,7.05
2019-06-20T22:55:27.845Z,8.05
2019-06-20T22:57:56.872Z,7.62
2019-06-20T23:00:26.600Z,8.33
2019-06-20T23:02:56.303Z,8.08
2019-06-20T23:05:26.979Z,8.50
2019-06-20T23:08:01.911Z,8.75
2019-06-20T23:10:34.404Z,8.30
2019-06-20T23:13:04.898Z,8.58
2019-06-20T23:15:37.559Z,8.83
2019-06-20T23:18:08.405Z,8.73
2019-06-20T23:20:41.302Z,8.63
2019-06-20T23:23:14.122Z,8.45
2019-06-20T23:25:48.546Z,7.08
2019-06-20T23:28:21.351Z,8.50
2019-06-20T23:30:51.436Z,8.15
2019-06-20T23:33:22.320Z,7.85
2019-06-20T23:35:54.810Z,7.10
2019-06-20T23:38:29.779Z,7.92
2019-06-20T23:40:58.926Z,7.45
2019-06-20T23:43:28.255Z,7.20
2019-06-20T23:46:00.465Z,7.65
2019-06-20T23:48:29.951Z,8.40
2019-06-20T23:51:02.543Z,7.47
2019-06-20T23:53:31.609Z,7.55
2019-06-20T23:56:07.849Z,7.15
2019-06-20T23:58:38.255Z,7.97
